Time;durP1;ratioP1;P1;durP2;ratioP2;P2;SDS_P1;SDS_P2;PMS_P1;PMS_P2;Temp;Humidity;BMP_temperature;BMP_pressure;BME280_temperature;BME280_humidity;BME280_pressure;Samples;Min_cycle;Max_cycle;Signal;HPM_P1;HPM_P2
2023/08/28 00:00:33;;;;;;;10.00;8.10;;;29.20;86.50;;;;;;5007865;28;20110;-81
2023/08/28 00:02:59;;;;;;;9.75;6.93;;;29.20;85.70;;;;;;5010413;28;20104;-81
2023/08/28 00:05:24;;;;;;;9.52;7.18;;;29.10;85.60;;;;;;4996195;28;20467;-80
2023/08/28 00:07:50;;;;;;;10.35;7.20;;;29.10;85.30;;;;;;5015233;28;20025;-80
2023/08/28 00:10:16;;;;;;;8.82;7.10;;;29.10;84.60;;;;;;4999303;28;20378;-81
2023/08/28 00:12:43;;;;;;;8.23;6.47;;;29.00;84.00;;;;;;5022570;28;20096;-80
2023/08/28 00:15:09;;;;;;;11.90;6.63;;;29.00;84.00;;;;;;5008195;28;20788;-80
2023/08/28 00:17:36;;;;;;;7.85;6.40;;;29.00;83.40;;;;;;5015781;28;20026;-81
2023/08/28 00:20:08;;;;;;;6.15;5.65;;;29.00;83.40;;;;;;5015307;28;20038;-81
2023/08/28 00:22:35;;;;;;;6.55;5.90;;;29.00;83.20;;;;;;5019831;28;20473;-81
2023/08/28 00:25:01;;;;;;;11.95;6.20;;;29.00;82.70;;;;;;5017228;28;20042;-81
2023/08/28 00:27:27;;;;;;;6.18;5.57;;;29.00;82.40;;;;;;5011566;28;20072;-80
2023/08/28 00:29:52;;;;;;;7.03;5.53;;;29.00;82.10;;;;;;5004262;28;20021;-81
2023/08/28 00:32:18;;;;;;;6.93;5.97;;;29.00;81.70;;;;;;5019503;28;20096;-80
2023/08/28 00:34:44;;;;;;;6.65;5.90;;;29.00;81.60;;;;;;5010986;28;20128;-81
2023/08/28 00:37:09;;;;;;;6.00;5.40;;;29.00;81.50;;;;;;5012778;28;20445;-80
2023/08/28 00:39:35;;;;;;;6.35;5.13;;;29.00;81.30;;;;;;5027754;28;20029;-79
2023/08/28 00:42:01;;;;;;;6.70;5.25;;;29.00;81.10;;;;;;5026888;28;20082;-80
2023/08/28 00:44:26;;;;;;;5.90;4.97;;;29.00;81.10;;;;;;5020503;28;20104;-80
2023/08/28 00:46:53;;;;;;;6.38;5.68;;;29.00;80.90;;;;;;5019567;28;20026;-80
2023/08/28 00:49:18;;;;;;;8.57;6.10;;;29.00;80.60;;;;;;5013520;28;20026;-80
2023/08/28 00:51:44;;;;;;;5.85;5.25;;;29.00;80.10;;;;;;5018665;28;20071;-80
2023/08/28 00:54:12;;;;;;;7.43;5.70;;;29.00;80.50;;;;;;5024687;28;20058;-81
2023/08/28 00:56:39;;;;;;;10.13;6.07;;;29.00;80.60;;;;;;5014448;28;20022;-80
2023/08/28 00:59:05;;;;;;;10.15;5.63;;;29.00;80.70;;;;;;5012641;28;20038;-81
2023/08/28 01:01:30;;;;;;;7.30;6.32;;;28.90;80.90;;;;;;5017519;28;20029;-81
2023/08/28 01:03:56;;;;;;;8.65;6.60;;;28.90;81.10;;;;;;5006608;28;20034;-80
2023/08/28 01:06:35;;;;;;;7.57;5.45;;;28.90;81.10;;;;;;4996535;28;20027;-80
2023/08/28 01:09:42;;;;;;;9.45;7.38;;;28.90;81.10;;;;;;5015760;28;20056;-80
2023/08/28 01:12:47;;;;;;;8.80;5.90;;;28.80;80.90;;;;;;4999471;28;20116;-80
2023/08/28 01:15:23;;;;;;;9.27;6.88;;;28.80;80.80;;;;;;5010879;28;20038;-80
2023/08/28 01:17:55;;;;;;;8.65;5.72;;;28.80;80.70;;;;;;5005926;28;20022;-79
2023/08/28 01:20:22;;;;;;;10.45;7.60;;;28.70;80.70;;;;;;5005114;28;20042;-79
2023/08/28 01:22:57;;;;;;;7.60;6.18;;;28.60;80.50;;;;;;5011574;28;20036;-80
2023/08/28 01:25:27;;;;;;;8.63;6.53;;;28.60;80.70;;;;;;4985416;28;20084;-79
2023/08/28 01:27:52;;;;;;;;;;;28.60;80.80;;;;;;5011841;28;20033;-79
2023/08/28 01:30:18;;;;;;;6.00;5.50;;;28.60;80.70;;;;;;5014389;28;19909;-79
2023/08/28 01:32:46;;;;;;;6.25;5.65;;;28.60;80.70;;;;;;4998429;28;20038;-80
2023/08/28 01:35:34;;;;;;;7.45;6.28;;;28.70;80.80;;;;;;5017227;28;20436;-78
2023/08/28 01:38:00;;;;;;;8.35;5.97;;;28.70;81.30;;;;;;5008559;28;20030;-80
2023/08/28 01:40:32;;;;;;;7.70;6.20;;;28.70;81.80;;;;;;5016061;28;20049;-79
2023/08/28 01:43:01;;;;;;;8.25;6.20;;;28.70;82.00;;;;;;5009104;28;20450;-80
2023/08/28 01:45:27;;;;;;;9.57;7.40;;;28.70;82.30;;;;;;5014923;28;20038;-80
2023/08/28 01:47:53;;;;;;;9.10;7.65;;;28.70;83.10;;;;;;5014574;28;20053;-80
2023/08/28 01:50:18;;;;;;;7.78;6.93;;;28.70;83.60;;;;;;5024448;28;20025;-80
2023/08/28 01:52:44;;;;;;;8.20;6.45;;;28.60;84.00;;;;;;5016701;28;20121;-80
2023/08/28 01:55:10;;;;;;;9.35;7.70;;;28.60;84.20;;;;;;5014352;28;20385;-80
2023/08/28 01:57:35;;;;;;;11.00;6.38;;;28.60;84.60;;;;;;5009599;28;20030;-80
2023/08/28 02:00:01;;;;;;;7.70;6.90;;;28.50;84.70;;;;;;5015766;28;20105;-80
2023/08/28 02:02:27;;;;;;;8.35;7.45;;;28.40;84.70;;;;;;5015764;28;20528;-80
2023/08/28 02:04:52;;;;;;;9.60;7.40;;;28.40;84.60;;;;;;5016511;28;20026;-80
2023/08/28 02:07:18;;;;;;;8.43;7.00;;;28.40;84.60;;;;;;4997343;28;20038;-80
2023/08/28 02:09:44;;;;;;;10.95;7.47;;;28.40;84.60;;;;;;5015593;28;20030;-81
2023/08/28 02:12:10;;;;;;;9.13;7.22;;;28.30;84.70;;;;;;5015425;28;20088;-80
2023/08/28 02:14:36;;;;;;;8.70;7.70;;;28.30;84.90;;;;;;5017458;28;20021;-80
2023/08/28 02:17:02;;;;;;;10.85;7.80;;;28.30;84.80;;;;;;5010970;28;20034;-80
2023/08/28 02:19:28;;;;;;;9.18;7.70;;;28.30;85.30;;;;;;4997835;28;20042;-80
2023/08/28 02:21:54;;;;;;;9.27;7.75;;;28.30;85.20;;;;;;5016432;28;20026;-81
2023/08/28 02:24:19;;;;;;;9.63;7.95;;;28.30;85.10;;;;;;4998398;28;20402;-80
2023/08/28 02:26:45;;;;;;;8.88;7.90;;;28.30;85.20;;;;;;5019586;28;20021;-80
2023/08/28 02:29:11;;;;;;;11.60;9.93;;;28.30;85.70;;;;;;4999599;28;20026;-80
2023/08/28 02:31:36;;;;;;;9.45;8.48;;;28.30;85.70;;;;;;4998746;28;20471;-80
2023/08/28 02:34:02;;;;;;;10.38;7.65;;;28.30;85.60;;;;;;5015759;28;20038;-81
2023/08/28 02:36:28;;;;;;;11.48;7.90;;;28.20;85.40;;;;;;5018634;28;20076;-80
2023/08/28 02:38:54;;;;;;;8.18;7.38;;;28.20;85.60;;;;;;5001249;28;20121;-81
2023/08/28 02:41:19;;;;;;;9.50;7.47;;;28.20;85.80;;;;;;5017806;28;20064;-80
2023/08/28 02:43:45;;;;;;;8.85;8.00;;;28.20;85.60;;;;;;5001965;28;20033;-80
2023/08/28 02:46:11;;;;;;;9.18;6.90;;;28.20;85.60;;;;;;5015200;28;20029;-80
2023/08/28 02:48:37;;;;;;;8.65;7.72;;;28.20;85.70;;;;;;5015990;28;20532;-80
2023/08/28 02:51:02;;;;;;;9.25;8.30;;;28.20;85.90;;;;;;5012260;28;20025;-79
2023/08/28 02:53:28;;;;;;;8.90;8.00;;;28.20;86.00;;;;;;5014814;28;20026;-79
2023/08/28 02:56:24;;;;;;;10.25;8.43;;;28.20;86.10;;;;;;5002639;28;20436;-79
2023/08/28 02:58:51;;;;;;;11.48;8.68;;;28.30;86.70;;;;;;5011768;28;20041;-78
2023/08/28 03:01:17;;;;;;;10.60;8.80;;;28.30;87.60;;;;;;4998039;28;20117;-78
2023/08/28 03:06:18;;;;;;;13.68;9.10;;;28.30;88.00;;;;;;5003419;23;19925;-80
2023/08/28 03:09:07;;;;;;;13.18;9.63;;;28.40;88.80;;;;;;5014439;28;20037;-80
2023/08/28 03:11:38;;;;;;;12.20;9.98;;;28.40;88.90;;;;;;4980732;28;20618;-79
2023/08/28 03:14:21;;;;;;;11.50;9.93;;;28.40;89.70;;;;;;5014237;28;20477;-80
2023/08/28 03:17:03;;;;;;;11.10;9.90;;;28.40;90.10;;;;;;4996684;28;20026;-80
2023/08/28 03:19:44;;;;;;;12.57;10.98;;;28.40;90.30;;;;;;5014127;28;20061;-80
2023/08/28 03:22:13;;;;;;;14.00;10.00;;;28.40;90.30;;;;;;5015265;28;20083;-79
2023/08/28 03:24:58;;;;;;;10.95;9.88;;;28.20;90.10;;;;;;5014108;28;20025;-80
2023/08/28 03:27:23;;;;;;;11.07;9.10;;;28.30;90.10;;;;;;5002486;28;20026;-80
2023/08/28 03:29:49;;;;;;;14.82;11.40;;;28.20;90.10;;;;;;4995362;28;20041;-79
2023/08/28 03:32:15;;;;;;;10.95;9.75;;;28.20;90.30;;;;;;5014506;28;20030;-79
2023/08/28 03:34:40;;;;;;;11.07;9.45;;;28.10;90.40;;;;;;5017382;28;20084;-79
2023/08/28 03:37:15;;;;;;;11.20;9.52;;;28.10;90.70;;;;;;4996054;28;20031;-79
2023/08/28 03:39:41;;;;;;;10.77;9.27;;;28.00;90.80;;;;;;5015833;28;20396;-81
2023/08/28 03:42:07;;;;;;;11.80;10.00;;;28.00;91.10;;;;;;5025701;28;20038;-81
2023/08/28 03:44:48;;;;;;;14.65;10.50;;;28.00;91.30;;;;;;5013840;28;20044;-81
2023/08/28 03:47:14;;;;;;;12.00;9.45;;;28.00;91.40;;;;;;5001802;28;20034;-82
2023/08/28 03:49:40;;;;;;;13.77;11.05;;;28.00;91.60;;;;;;5014173;28;20037;-81
2023/08/28 03:52:05;;;;;;;15.10;10.38;;;27.90;91.40;;;;;;4996453;28;20088;-81
2023/08/28 03:54:31;;;;;;;13.85;10.23;;;28.00;91.50;;;;;;4985913;28;20149;-80
2023/08/28 03:56:57;;;;;;;13.02;10.48;;;27.90;91.70;;;;;;5011534;28;20037;-81
2023/08/28 03:59:23;;;;;;;13.65;11.10;;;28.00;91.80;;;;;;5023941;28;20034;-80
2023/08/28 04:01:49;;;;;;;13.23;10.60;;;27.90;92.00;;;;;;4991695;28;20581;-81
2023/08/28 04:04:33;;;;;;;14.43;10.98;;;28.00;92.00;;;;;;5026097;28;20108;-81
2023/08/28 04:07:01;;;;;;;12.35;11.05;;;28.00;92.20;;;;;;5025113;28;20074;-81
2023/08/28 04:09:27;;;;;;;15.18;10.43;;;28.00;92.30;;;;;;4993068;28;20087;-81
2023/08/28 04:11:53;;;;;;;12.73;10.70;;;28.00;92.50;;;;;;5014521;28;20557;-78
2023/08/28 04:14:19;;;;;;;11.65;10.40;;;28.00;92.70;;;;;;5015033;28;20040;-81
2023/08/28 04:16:44;;;;;;;13.40;10.68;;;28.00;92.90;;;;;;5006290;28;20042;-80
2023/08/28 04:19:10;;;;;;;20.25;13.13;;;28.00;93.10;;;;;;5017272;28;20482;-81
2023/08/28 04:21:36;;;;;;;15.90;12.05;;;28.10;93.60;;;;;;5014093;28;20038;-81
2023/08/28 04:24:02;;;;;;;19.25;12.02;;;28.00;93.40;;;;;;4996811;28;20026;-81
2023/08/28 04:26:27;;;;;;;17.05;12.82;;;28.00;93.50;;;;;;5028384;28;20014;-81
2023/08/28 04:28:53;;;;;;;16.05;12.57;;;28.10;93.60;;;;;;5013236;28;20113;-81
2023/08/28 04:31:19;;;;;;;15.18;11.88;;;28.10;93.50;;;;;;5014952;28;20022;-81
2023/08/28 04:33:45;;;;;;;15.30;11.88;;;28.20;93.40;;;;;;5014848;28;20034;-81
2023/08/28 04:36:10;;;;;;;12.52;11.23;;;28.20;93.30;;;;;;5015401;23;20066;-79
2023/08/28 04:38:36;;;;;;;14.95;12.82;;;28.20;93.20;;;;;;5004041;28;20495;-79
2023/08/28 04:41:02;;;;;;;15.05;12.57;;;28.20;93.20;;;;;;4994288;28;20030;-79
2023/08/28 04:43:28;;;;;;;18.15;12.88;;;28.20;93.30;;;;;;4975349;28;20414;-79
2023/08/28 04:45:54;;;;;;;13.70;11.93;;;28.20;93.30;;;;;;5006876;28;20041;-81
2023/08/28 04:48:19;;;;;;;14.27;11.45;;;28.20;93.40;;;;;;4995651;28;20081;-81
2023/08/28 04:50:45;;;;;;;15.25;11.23;;;28.30;93.60;;;;;;5004607;28;20026;-80
2023/08/28 04:53:11;;;;;;;16.20;11.55;;;28.20;93.60;;;;;;4978567;28;20062;-78
2023/08/28 04:55:39;;;;;;;15.52;11.57;;;28.20;93.60;;;;;;5000100;28;20026;-80
2023/08/28 04:58:05;;;;;;;17.30;12.30;;;28.20;93.70;;;;;;4993510;28;20030;-80
2023/08/28 05:00:31;;;;;;;13.30;11.95;;;28.20;93.60;;;;;;4996688;28;20373;-80
2023/08/28 05:02:57;;;;;;;17.73;14.02;;;28.20;93.70;;;;;;4983996;28;20034;-80
2023/08/28 05:05:22;;;;;;;14.85;12.82;;;28.30;94.00;;;;;;5003290;28;20109;-85
2023/08/28 05:07:48;;;;;;;19.60;11.98;;;28.30;94.20;;;;;;4997894;28;20466;-86
2023/08/28 05:10:14;;;;;;;14.98;12.30;;;28.30;93.70;;;;;;5001441;28;20111;-86
2023/08/28 05:12:39;;;;;;;14.27;11.57;;;28.30;93.40;;;;;;5013999;28;20114;-86
2023/08/28 05:15:06;;;;;;;18.05;12.10;;;28.30;92.80;;;;;;5012665;28;20033;-86
2023/08/28 05:17:31;;;;;;;15.73;12.00;;;28.40;92.50;;;;;;4995076;28;20033;-85
2023/08/28 05:19:57;;;;;;;15.43;12.52;;;28.40;92.50;;;;;;4996976;28;20030;-85
2023/08/28 05:22:23;;;;;;;16.15;12.20;;;28.50;92.70;;;;;;4994438;28;20037;-84
2023/08/28 05:24:48;;;;;;;13.35;11.95;;;28.50;92.40;;;;;;4995895;28;20423;-86
2023/08/28 05:27:14;;;;;;;14.48;12.15;;;28.50;92.20;;;;;;4990363;28;20029;-85
2023/08/28 05:29:40;;;;;;;13.55;12.02;;;28.50;92.00;;;;;;4993431;28;20033;-84
2023/08/28 05:32:06;;;;;;;17.50;12.45;;;28.60;92.20;;;;;;4992034;28;20038;-85
2023/08/28 05:34:32;;;;;;;15.48;11.70;;;28.60;92.00;;;;;;4992411;28;20105;-85
2023/08/28 05:36:58;;;;;;;14.07;10.70;;;28.60;91.80;;;;;;4997163;28;20991;-85
2023/08/28 05:39:23;;;;;;;13.57;11.35;;;28.60;91.60;;;;;;4997872;28;20080;-85
2023/08/28 05:41:49;;;;;;;13.18;11.50;;;28.60;91.50;;;;;;4999486;28;20041;-84
2023/08/28 05:44:15;;;;;;;15.25;11.93;;;28.60;91.30;;;;;;4994198;28;20027;-82
2023/08/28 05:46:40;;;;;;;12.43;10.85;;;28.60;91.30;;;;;;4999020;28;20030;-84
2023/08/28 05:49:07;;;;;;;15.52;11.73;;;28.60;91.00;;;;;;5003785;28;20086;-84
2023/08/28 05:51:33;;;;;;;23.23;11.30;;;28.60;91.00;;;;;;5004903;28;20034;-83
2023/08/28 05:53:59;;;;;;;18.40;10.73;;;28.60;90.80;;;;;;5001994;28;20390;-78
2023/08/28 05:56:24;;;;;;;16.27;11.40;;;28.60;90.40;;;;;;4991088;28;20037;-81
2023/08/28 05:58:50;;;;;;;16.25;11.23;;;28.60;90.50;;;;;;5003673;28;20108;-81
2023/08/28 06:01:16;;;;;;;16.83;9.70;;;28.50;90.20;;;;;;4997480;28;20034;-81
2023/08/28 06:03:42;;;;;;;14.35;9.82;;;28.50;90.00;;;;;;4993271;28;20403;-86
2023/08/28 06:06:07;;;;;;;22.23;11.75;;;28.40;90.00;;;;;;4994043;28;20026;-87
2023/08/28 06:08:33;;;;;;;16.60;11.35;;;28.40;90.10;;;;;;4993149;28;20030;-87
2023/08/28 06:10:59;;;;;;;14.98;11.25;;;28.40;90.00;;;;;;4984931;28;20386;-86
2023/08/28 06:13:24;;;;;;;18.17;11.98;;;28.30;90.10;;;;;;4994544;28;20041;-86
2023/08/28 06:15:50;;;;;;;14.32;10.80;;;28.20;90.60;;;;;;4999485;28;20040;-85
2023/08/28 06:18:16;;;;;;;14.40;12.88;;;28.10;90.90;;;;;;4999524;28;20029;-86
2023/08/28 06:20:42;;;;;;;12.23;10.90;;;28.00;91.40;;;;;;5016449;28;20034;-86
2023/08/28 06:23:07;;;;;;;13.52;11.05;;;27.90;91.70;;;;;;5016370;28;20486;-86
2023/08/28 06:25:33;;;;;;;14.38;10.95;;;27.90;92.00;;;;;;5016328;28;20446;-86
2023/08/28 06:27:59;;;;;;;14.98;10.50;;;27.90;92.20;;;;;;5015695;28;20528;-85
2023/08/28 06:30:24;;;;;;;13.65;10.52;;;27.90;92.50;;;;;;5009197;28;20370;-87
2023/08/28 06:32:50;;;;;;;17.27;12.48;;;27.90;92.70;;;;;;4998607;28;20415;-84
2023/08/28 06:35:17;;;;;;;16.27;11.45;;;27.90;93.30;;;;;;5012515;28;20033;-85
2023/08/28 06:37:44;;;;;;;14.18;11.98;;;27.90;93.50;;;;;;5002886;28;20061;-85
2023/08/28 06:40:10;;;;;;;15.82;12.48;;;27.90;93.70;;;;;;4996790;28;20091;-85
2023/08/28 06:42:36;;;;;;;17.30;11.82;;;27.90;93.60;;;;;;4981062;28;20395;-85
2023/08/28 06:45:02;;;;;;;17.33;11.35;;;27.90;93.80;;;;;;4995919;28;20041;-85
2023/08/28 06:47:27;;;;;;;13.20;10.73;;;27.90;93.80;;;;;;4981001;28;20026;-85
2023/08/28 06:49:53;;;;;;;16.98;11.75;;;27.90;93.60;;;;;;5006603;28;20489;-85
2023/08/28 06:52:19;;;;;;;17.63;11.48;;;27.90;93.80;;;;;;5001861;28;20065;-85
2023/08/28 06:54:45;;;;;;;13.57;11.75;;;27.90;93.80;;;;;;4985480;28;20038;-85
2023/08/28 06:57:11;;;;;;;12.93;11.57;;;27.90;93.90;;;;;;4999679;28;20069;-85
2023/08/28 06:59:36;;;;;;;15.23;11.95;;;27.90;93.90;;;;;;5003030;28;20042;-85
2023/08/28 07:02:02;;;;;;;17.88;11.43;;;27.80;93.90;;;;;;5003534;28;20067;-85
2023/08/28 07:04:28;;;;;;;15.60;11.38;;;27.80;93.90;;;;;;5004005;28;20033;-85
2023/08/28 07:06:54;;;;;;;13.02;11.35;;;27.90;94.10;;;;;;5012110;28;20499;-85
2023/08/28 07:09:20;;;;;;;17.27;11.25;;;27.80;94.10;;;;;;5003834;28;20046;-85
2023/08/28 07:11:46;;;;;;;14.13;10.85;;;27.90;94.10;;;;;;4997201;28;20037;-81
2023/08/28 07:14:12;;;;;;;13.75;10.70;;;27.80;93.90;;;;;;4996152;28;20034;-81
2023/08/28 07:16:38;;;;;;;15.73;10.90;;;27.80;93.80;;;;;;4996189;28;20364;-81
2023/08/28 07:19:04;;;;;;;12.70;10.25;;;27.80;94.00;;;;;;5011567;28;20096;-81
2023/08/28 07:21:30;;;;;;;13.25;10.05;;;27.80;94.00;;;;;;5009572;28;20108;-81
2023/08/28 07:23:55;;;;;;;13.95;10.68;;;27.80;93.90;;;;;;5005053;28;20088;-81
2023/08/28 07:26:21;;;;;;;12.50;9.63;;;27.70;94.00;;;;;;5012727;28;20031;-80
2023/08/28 07:28:48;;;;;;;12.32;7.63;;;27.80;94.10;;;;;;5003574;28;20056;-81
2023/08/28 07:31:14;;;;;;;12.52;8.95;;;27.70;93.40;;;;;;4999133;28;20422;-81
2023/08/28 07:33:40;;;;;;;12.25;8.00;;;27.70;93.50;;;;;;5005118;28;20037;-82
2023/08/28 07:36:06;;;;;;;13.57;7.10;;;27.70;93.70;;;;;;4997029;28;20050;-83
2023/08/28 07:38:32;;;;;;;13.82;5.80;;;27.80;93.50;;;;;;4989808;28;20026;-86
2023/08/28 07:40:58;;;;;;;10.25;5.13;;;27.70;92.00;;;;;;4979608;28;20030;-81
2023/08/28 07:43:24;;;;;;;9.60;4.65;;;27.70;92.00;;;;;;5011298;28;20112;-82
2023/08/28 07:45:50;;;;;;;7.63;4.32;;;27.80;92.10;;;;;;5006524;28;20065;-83
2023/08/28 07:48:16;;;;;;;7.80;4.30;;;27.70;92.00;;;;;;4995436;28;20026;-82
2023/08/28 07:50:42;;;;;;;12.65;4.38;;;27.70;91.90;;;;;;5002703;28;20101;-81
2023/08/28 07:53:08;;;;;;;7.43;3.72;;;27.70;91.90;;;;;;5012279;28;20037;-79
2023/08/28 07:55:34;;;;;;;10.65;4.30;;;27.80;91.50;;;;;;5007244;28;20057;-80
2023/08/28 07:58:00;;;;;;;10.63;4.30;;;27.80;91.50;;;;;;4979152;28;20041;-80
2023/08/28 08:00:26;;;;;;;10.75;5.03;;;27.80;91.50;;;;;;4994832;28;20030;-80
2023/08/28 08:02:52;;;;;;;13.90;5.03;;;27.80;91.40;;;;;;4993506;28;20057;-80
2023/08/28 08:05:18;;;;;;;8.57;4.45;;;27.90;91.70;;;;;;4992647;28;20019;-80
2023/08/28 08:07:44;;;;;;;10.07;3.50;;;27.90;91.40;;;;;;4994135;28;20027;-80
2023/08/28 08:10:12;;;;;;;8.57;3.50;;;27.90;91.00;;;;;;4994060;28;20037;-78
2023/08/28 08:12:39;;;;;;;4.70;2.75;;;27.90;90.90;;;;;;4992623;28;20061;-82
2023/08/28 08:15:08;;;;;;;5.90;2.85;;;27.90;88.30;;;;;;4995924;28;20504;-81
2023/08/28 08:17:37;;;;;;;9.13;3.38;;;27.90;88.20;;;;;;4997717;28;20631;-81
2023/08/28 08:20:09;;;;;;;8.75;2.95;;;27.80;88.30;;;;;;4977078;28;20129;-86
2023/08/28 08:22:36;;;;;;;6.70;2.95;;;27.80;87.90;;;;;;4993127;28;20034;-80
2023/08/28 08:25:02;;;;;;;6.72;3.28;;;27.80;87.30;;;;;;4990985;28;20027;-81
2023/08/28 08:27:28;;;;;;;8.95;3.10;;;27.80;87.10;;;;;;4991678;28;20632;-81
2023/08/28 08:29:54;;;;;;;6.75;3.40;;;27.80;86.90;;;;;;4998127;28;20029;-81
2023/08/28 08:32:19;;;;;;;7.75;3.03;;;27.70;87.00;;;;;;5002805;28;20068;-84
2023/08/28 08:34:45;;;;;;;6.05;3.25;;;27.80;87.10;;;;;;5002231;28;20100;-83
2023/08/28 08:37:11;;;;;;;9.20;3.22;;;27.80;86.80;;;;;;5002729;28;20117;-81
2023/08/28 08:39:37;;;;;;;7.43;3.30;;;27.80;86.60;;;;;;5003522;28;20497;-82
2023/08/28 08:42:03;;;;;;;9.90;3.70;;;27.80;87.00;;;;;;5005579;28;20045;-81
2023/08/28 08:44:30;;;;;;;9.13;3.75;;;27.80;86.90;;;;;;4993244;28;20018;-80
2023/08/28 08:46:56;;;;;;;11.65;3.30;;;27.70;87.10;;;;;;4985860;28;20026;-81
2023/08/28 08:49:26;;;;;;;6.05;3.15;;;27.80;86.90;;;;;;4975777;28;20025;-81
2023/08/28 08:51:59;;;;;;;6.72;3.30;;;27.70;86.80;;;;;;4996346;28;20054;-81
2023/08/28 08:54:30;;;;;;;17.05;5.90;;;27.80;87.00;;;;;;4993721;28;20101;-81
2023/08/28 08:57:04;;;;;;;24.65;8.07;;;27.70;87.30;;;;;;4963864;28;20416;-79
2023/08/28 08:59:32;;;;;;;20.85;5.88;;;27.70;89.20;;;;;;4992922;28;20049;-80
2023/08/28 09:02:02;;;;;;;16.83;5.22;;;27.60;89.40;;;;;;4993415;28;20439;-79
2023/08/28 09:04:30;;;;;;;18.90;5.43;;;27.50;89.70;;;;;;4993441;28;20488;-81
2023/08/28 09:06:58;;;;;;;14.80;4.50;;;27.40;90.30;;;;;;4987178;28;20406;-80
2023/08/28 09:09:23;;;;;;;13.38;4.88;;;27.30;90.80;;;;;;4993648;28;20426;-80
2023/08/28 09:11:49;;;;;;;13.93;4.75;;;27.30;91.10;;;;;;4992636;28;20472;-80
2023/08/28 09:14:19;;;;;;;12.63;4.55;;;27.30;91.30;;;;;;4992630;28;20034;-80
2023/08/28 09:16:44;;;;;;;11.50;4.23;;;27.30;91.50;;;;;;4975732;28;20030;-81
2023/08/28 09:19:10;;;;;;;15.50;5.32;;;27.30;91.50;;;;;;4993216;28;20053;-80
2023/08/28 09:21:47;;;;;;;13.30;4.78;;;27.30;91.70;;;;;;4998678;28;20081;-80
2023/08/28 09:24:13;;;;;;;20.45;5.50;;;27.30;91.60;;;;;;4991240;28;20079;-81
2023/08/28 09:26:39;;;;;;;19.00;6.05;;;27.20;91.90;;;;;;4992779;28;20017;-81
2023/08/28 09:29:08;;;;;;;19.48;5.28;;;27.20;91.90;;;;;;4990239;28;20526;-81
2023/08/28 09:31:36;;;;;;;13.18;5.15;;;27.20;92.00;;;;;;4975698;28;20077;-81
2023/08/28 09:34:03;;;;;;;25.55;6.15;;;27.10;91.80;;;;;;4976358;28;20035;-81
2023/08/28 09:36:33;;;;;;;19.65;6.15;;;27.10;92.00;;;;;;4978634;28;20034;-81
2023/08/28 09:39:01;;;;;;;16.40;4.88;;;27.10;92.30;;;;;;4977115;28;20034;-81
2023/08/28 09:41:39;;;;;;;13.52;4.72;;;27.10;92.60;;;;;;4999247;28;20457;-81
2023/08/28 09:44:05;;;;;;;10.98;3.90;;;27.10;92.70;;;;;;4991248;28;20023;-84
2023/08/28 09:46:31;;;;;;;15.38;4.18;;;27.20;92.70;;;;;;5002112;28;20026;-82
2023/08/28 09:48:57;;;;;;;15.45;4.90;;;27.30;92.60;;;;;;4992354;28;20498;-82
2023/08/28 09:51:44;;;;;;;7.82;3.33;;;27.30;92.40;;;;;;4979397;28;20022;-82
2023/08/28 09:54:12;;;;;;;14.05;3.85;;;27.30;91.70;;;;;;4996128;28;20030;-82
2023/08/28 09:56:39;;;;;;;12.20;4.97;;;27.30;91.40;;;;;;4997034;28;20022;-82
2023/08/28 09:59:06;;;;;;;9.00;3.58;;;27.30;90.90;;;;;;4997304;28;20435;-83
2023/08/28 10:01:35;;;;;;;13.57;3.15;;;27.30;90.90;;;;;;5000291;28;20049;-82
2023/08/28 10:04:05;;;;;;;10.80;3.30;;;27.20;91.10;;;;;;4979288;28;20027;-85
2023/08/28 10:06:33;;;;;;;10.38;3.55;;;27.20;91.40;;;;;;4984649;28;20359;-82
2023/08/28 10:09:00;;;;;;;5.55;3.10;;;27.20;90.70;;;;;;4995569;28;20029;-82
2023/08/28 10:11:39;;;;;;;7.55;2.85;;;27.10;91.00;;;;;;4998027;28;20026;-81
2023/08/28 10:14:06;;;;;;;16.63;3.83;;;27.10;90.70;;;;;;4994669;28;20081;-81
2023/08/28 10:16:41;;;;;;;9.70;3.10;;;27.10;90.60;;;;;;4998034;28;20030;-81
2023/08/28 10:19:21;;;;;;;9.98;3.08;;;27.00;90.10;;;;;;4994057;28;20041;-82
2023/08/28 10:21:50;;;;;;;6.80;3.10;;;27.00;90.40;;;;;;4996024;28;20118;-82
2023/08/28 10:24:17;;;;;;;9.32;2.72;;;27.00;90.20;;;;;;4973811;28;20077;-81
2023/08/28 10:26:44;;;;;;;10.30;3.03;;;26.90;90.50;;;;;;4976648;28;20030;-82
2023/08/28 10:29:11;;;;;;;7.82;3.13;;;26.90;90.70;;;;;;5000022;28;20018;-82
2023/08/28 10:31:38;;;;;;;7.90;3.28;;;26.90;91.30;;;;;;4994983;28;20362;-82
2023/08/28 10:34:09;;;;;;;7.47;3.45;;;26.90;91.70;;;;;;4979655;28;20029;-82
2023/08/28 10:36:46;;;;;;;9.55;3.90;;;26.90;92.00;;;;;;4997758;28;20109;-82
2023/08/28 10:39:12;;;;;;;14.38;4.38;;;26.90;92.10;;;;;;4996003;28;20033;-82
2023/08/28 10:41:40;;;;;;;13.05;4.40;;;26.80;91.90;;;;;;5000407;28;20064;-81
2023/08/28 10:44:08;;;;;;;19.45;5.53;;;26.80;92.10;;;;;;5002779;28;20022;-80
2023/08/28 10:46:34;;;;;;;8.80;3.25;;;26.80;91.70;;;;;;4996240;28;20018;-80
2023/08/28 10:49:04;;;;;;;14.25;3.65;;;26.70;91.10;;;;;;4997508;28;20080;-80
2023/08/28 10:51:37;;;;;;;9.60;3.50;;;26.70;91.80;;;;;;4995316;28;20489;-80
2023/08/28 10:54:07;;;;;;;7.00;3.72;;;26.70;92.10;;;;;;4995830;28;20038;-80
2023/08/28 10:56:35;;;;;;;11.25;3.20;;;26.70;92.20;;;;;;4996235;28;20034;-80
2023/08/28 10:59:19;;;;;;;7.80;3.15;;;26.70;91.80;;;;;;4992874;28;20030;-80
2023/08/28 11:01:57;;;;;;;7.40;2.80;;;26.60;91.10;;;;;;4997409;28;20030;-80
2023/08/28 11:04:31;;;;;;;11.45;3.30;;;26.50;91.40;;;;;;4989244;28;20026;-80
2023/08/28 11:06:57;;;;;;;12.60;3.28;;;26.50;91.80;;;;;;4991023;28;20030;-79
2023/08/28 11:09:29;;;;;;;12.02;4.32;;;26.50;92.00;;;;;;4996027;28;20097;-80
2023/08/28 11:11:57;;;;;;;7.85;4.05;;;26.50;91.90;;;;;;4993891;28;20041;-80
2023/08/28 11:14:24;;;;;;;10.85;3.78;;;26.40;91.70;;;;;;4982488;28;20108;-80
2023/08/28 11:17:15;;;;;;;19.13;5.32;;;26.40;92.20;;;;;;5000274;28;20061;-81
2023/08/28 11:19:55;;;;;;;10.93;3.63;;;26.30;91.90;;;;;;4990117;28;20030;-81
2023/08/28 11:22:59;;;;;;;14.70;4.45;;;26.30;92.40;;;;;;4995644;28;20062;-81
2023/08/28 11:25:36;;;;;;;9.73;3.83;;;26.40;93.10;;;;;;4946604;28;20042;-81
2023/08/28 11:28:01;;;;;;;11.27;3.60;;;26.50;92.80;;;;;;4981965;28;20034;-84
2023/08/28 11:30:28;;;;;;;12.45;3.88;;;26.60;92.70;;;;;;4995243;28;20038;-83
2023/08/28 11:32:55;;;;;;;9.52;3.97;;;26.60;92.20;;;;;;4969780;28;20061;-82
2023/08/28 11:35:22;;;;;;;12.35;3.75;;;26.60;92.10;;;;;;4976632;28;20112;-82
2023/08/28 11:37:54;;;;;;;7.65;3.78;;;26.60;92.00;;;;;;4993032;28;20053;-82
2023/08/28 11:40:21;;;;;;;8.07;3.40;;;26.50;92.00;;;;;;4994318;28;20026;-81
2023/08/28 11:42:48;;;;;;;8.30;3.50;;;26.50;92.20;;;;;;4976172;28;20044;-81
2023/08/28 11:45:22;;;;;;;8.20;3.78;;;26.60;92.60;;;;;;4994106;28;20467;-81
2023/08/28 11:47:49;;;;;;;9.48;3.30;;;26.80;92.60;;;;;;4975216;28;20025;-81
2023/08/28 11:50:16;;;;;;;8.88;3.75;;;26.90;91.60;;;;;;4993946;28;20105;-81
2023/08/28 11:52:50;;;;;;;12.20;4.20;;;27.00;91.40;;;;;;4993362;28;20018;-81
2023/08/28 11:55:16;;;;;;;8.60;2.95;;;27.20;90.40;;;;;;4975476;28;20030;-80
2023/08/28 11:57:43;;;;;;;11.55;4.00;;;27.60;91.10;;;;;;4993853;28;20054;-81
2023/08/28 12:00:14;;;;;;;6.13;3.08;;;28.00;88.10;;;;;;4994184;28;20471;-80
2023/08/28 12:02:43;;;;;;;10.18;3.60;;;28.40;90.00;;;;;;4991906;28;20033;-80
2023/08/28 12:05:09;;;;;;;7.55;3.05;;;28.80;89.30;;;;;;4993487;28;20061;-80
2023/08/28 12:07:35;;;;;;;5.95;2.92;;;29.10;87.30;;;;;;4995175;28;20021;-81
2023/08/28 12:10:03;;;;;;;8.88;2.90;;;29.50;86.30;;;;;;4993376;28;20022;-81
2023/08/28 12:12:29;;;;;;;13.18;3.60;;;29.90;83.10;;;;;;4986517;28;20054;-80
2023/08/28 12:14:55;;;;;;;7.72;3.17;;;30.10;82.00;;;;;;4991698;28;20034;-81
2023/08/28 12:17:28;;;;;;;10.05;3.25;;;30.30;83.40;;;;;;4992674;28;20117;-81
2023/08/28 12:19:53;;;;;;;5.10;2.83;;;30.70;81.70;;;;;;4994976;28;20042;-81
2023/08/28 12:22:23;;;;;;;9.45;3.25;;;30.90;80.70;;;;;;4992847;28;20030;-80
2023/08/28 12:48:02;;;;;;;7.45;2.67;;;32.50;73.10;;;;;;5011102;28;20046;-81
2023/08/28 12:50:28;;;;;;;6.32;3.30;;;32.60;72.70;;;;;;5011856;28;20022;-83
2023/08/28 12:52:53;;;;;;;6.55;3.50;;;32.60;72.90;;;;;;5011983;28;20034;-84
2023/08/28 12:55:19;;;;;;;9.30;3.10;;;32.60;73.70;;;;;;5013454;28;20350;-84
2023/08/28 12:57:45;;;;;;;5.45;2.63;;;32.80;72.30;;;;;;5011523;28;20022;-84
2023/08/28 13:00:11;;;;;;;6.65;2.90;;;32.90;71.70;;;;;;5016013;28;20144;-84
2023/08/28 13:02:37;;;;;;;8.60;3.17;;;33.10;70.80;;;;;;5020505;28;20041;-84
2023/08/28 13:05:06;;;;;;;7.70;2.30;;;33.10;68.80;;;;;;5020869;28;20029;-84
2023/08/28 13:07:32;;;;;;;3.58;1.75;;;32.90;70.20;;;;;;5013866;28;20068;-85